createdAt,value
2023-03-22T00:04:15.876Z,0.00
2023-03-22T00:09:15.813Z,0.00
2023-03-22T00:14:15.729Z,0.00
2023-03-22T00:19:15.660Z,0.00
2023-03-22T00:24:15.602Z,0.00
2023-03-22T00:29:15.530Z,0.00
2023-03-22T00:34:15.460Z,0.00
2023-03-22T00:39:15.401Z,0.00
2023-03-22T00:44:15.334Z,0.00
2023-03-22T00:49:15.263Z,0.00
2023-03-22T00:54:15.194Z,0.00
2023-03-22T00:59:15.135Z,0.00
2023-03-22T01:04:15.070Z,0.00
2023-03-22T01:09:15.212Z,0.00
2023-03-22T01:14:14.941Z,0.00
2023-03-22T01:19:14.860Z,0.00
2023-03-22T01:24:14.789Z,0.00
2023-03-22T01:29:14.710Z,0.00
2023-03-22T01:34:14.658Z,0.00
2023-03-22T01:39:14.590Z,0.00
2023-03-22T01:44:14.537Z,0.00
2023-03-22T01:49:14.459Z,0.00
2023-03-22T01:54:14.392Z,0.00
2023-03-22T01:59:14.312Z,0.00
2023-03-22T02:04:14.254Z,0.00
2023-03-22T02:09:14.203Z,0.00
2023-03-22T02:14:14.121Z,0.00
2023-03-22T02:19:14.064Z,0.00
2023-03-22T02:24:13.991Z,0.00
2023-03-22T02:29:13.928Z,0.00
2023-03-22T02:34:13.875Z,0.00
2023-03-22T02:39:13.790Z,0.00
2023-03-22T02:44:13.750Z,0.00
2023-03-22T02:49:13.668Z,0.00
2023-03-22T02:54:13.610Z,0.00
2023-03-22T02:59:13.540Z,0.00
2023-03-22T03:04:13.470Z,0.00
2023-03-22T03:09:13.389Z,0.00
2023-03-22T03:14:13.338Z,0.00
2023-03-22T03:19:13.268Z,0.00
2023-03-22T03:24:13.200Z,0.00
2023-03-22T03:29:13.120Z,0.00
2023-03-22T03:34:13.092Z,0.00
2023-03-22T03:39:12.992Z,0.00
2023-03-22T03:44:12.940Z,0.00
2023-03-22T03:49:12.858Z,0.00
2023-03-22T03:54:12.797Z,0.00
2023-03-22T03:59:12.732Z,0.00
2023-03-22T04:04:12.689Z,0.00
2023-03-22T04:09:12.589Z,0.00
2023-03-22T04:14:12.532Z,0.00
2023-03-22T04:19:12.463Z,0.00
2023-03-22T04:24:12.440Z,0.00
2023-03-22T04:29:12.327Z,0.00
2023-03-22T04:34:12.258Z,4.00
2023-03-22T04:39:12.201Z,8.00
2023-03-22T04:44:12.127Z,16.00
2023-03-22T04:49:12.056Z,36.00
2023-03-22T04:54:11.996Z,72.00
2023-03-22T04:59:11.935Z,148.00
2023-03-22T05:04:11.872Z,296.00
2023-03-22T05:09:11.786Z,544.00
2023-03-22T05:14:11.779Z,1060.00
2023-03-22T05:19:11.664Z,1732.00
2023-03-22T05:24:11.603Z,2048.00
2023-03-22T05:29:11.528Z,2644.00
2023-03-22T05:34:11.473Z,3288.00
2023-03-22T05:39:11.400Z,5216.00
2023-03-22T05:44:11.356Z,7928.00
2023-03-22T05:49:12.266Z,8496.00
2023-03-22T05:54:11.213Z,7980.00
2023-03-22T05:59:11.154Z,10104.00
2023-03-22T06:04:11.072Z,10120.00
2023-03-22T06:09:17.315Z,7748.00
2023-03-22T06:14:11.941Z,7248.00
2023-03-22T06:19:10.869Z,6140.00
2023-03-22T06:24:10.795Z,6052.00
2023-03-22T06:29:10.730Z,6408.00
2023-03-22T06:34:10.661Z,12160.00
2023-03-22T06:39:10.595Z,10584.00
2023-03-22T06:44:10.513Z,13532.00
2023-03-22T06:49:10.449Z,11176.00
2023-03-22T06:54:10.381Z,8396.00
2023-03-22T06:59:10.311Z,8068.00
2023-03-22T07:04:10.289Z,9900.00
2023-03-22T07:09:10.175Z,9420.00
2023-03-22T07:14:10.104Z,9912.00
2023-03-22T07:19:10.044Z,9228.00
2023-03-22T07:24:09.973Z,10012.00
2023-03-22T07:29:09.910Z,14228.00
2023-03-22T07:34:09.845Z,42240.00
2023-03-22T07:39:09.758Z,28288.00
2023-03-22T07:44:17.676Z,51392.00
2023-03-22T07:49:10.874Z,74592.00
2023-03-22T07:54:09.814Z,63808.00
2023-03-22T07:59:09.523Z,61856.00
2023-03-22T08:04:09.451Z,48864.00
2023-03-22T08:09:09.386Z,29984.00
2023-03-22T08:14:09.303Z,17280.00
2023-03-22T08:19:09.240Z,11248.00
2023-03-22T08:24:09.168Z,10288.00
2023-03-22T08:29:09.099Z,12700.00
2023-03-22T08:34:09.041Z,18496.00
2023-03-22T08:39:08.971Z,15832.00
2023-03-22T08:44:08.925Z,14420.00
2023-03-22T08:49:08.844Z,17024.00
2023-03-22T08:54:08.796Z,15544.00
2023-03-22T08:59:08.702Z,12340.00
2023-03-22T09:04:10.656Z,9788.00
2023-03-22T09:09:08.562Z,9844.00
2023-03-22T09:14:08.515Z,10928.00
2023-03-22T09:19:08.430Z,13464.00
2023-03-22T09:24:08.372Z,15592.00
2023-03-22T09:29:08.298Z,18720.00
2023-03-22T09:34:08.231Z,18688.00
2023-03-22T09:39:08.162Z,18080.00
2023-03-22T09:44:08.100Z,17824.00
2023-03-22T09:49:08.036Z,17504.00
2023-03-22T09:54:07.955Z,17024.00
2023-03-22T09:59:07.884Z,13888.00
2023-03-22T10:04:07.864Z,12260.00
2023-03-22T10:09:07.755Z,10096.00
2023-03-22T10:14:07.702Z,10628.00
2023-03-22T10:19:07.617Z,11104.00
2023-03-22T10:24:07.558Z,11284.00
2023-03-22T10:29:07.491Z,11256.00
2023-03-22T10:34:07.441Z,9276.00
2023-03-22T10:39:07.363Z,11084.00
2023-03-22T10:44:07.289Z,9892.00
2023-03-22T10:49:07.235Z,10924.00
2023-03-22T10:54:07.164Z,10056.00
2023-03-22T10:59:07.101Z,12288.00
2023-03-22T11:04:07.038Z,8856.00
2023-03-22T11:09:06.957Z,9232.00
2023-03-22T11:14:06.912Z,8952.00
2023-03-22T11:19:06.831Z,8772.00
2023-03-22T11:24:06.773Z,9116.00
2023-03-22T11:29:06.698Z,7872.00
2023-03-22T11:34:06.628Z,7720.00
2023-03-22T11:39:06.560Z,7696.00
2023-03-22T11:44:06.491Z,7844.00
2023-03-22T11:49:06.463Z,7904.00
2023-03-22T11:54:06.373Z,8020.00
2023-03-22T11:59:06.283Z,8284.00
2023-03-22T12:04:06.270Z,7932.00
2023-03-22T12:09:06.159Z,7992.00
2023-03-22T12:14:06.097Z,8344.00
2023-03-22T12:19:06.013Z,8508.00
2023-03-22T12:24:05.946Z,7376.00
2023-03-22T12:29:05.884Z,9300.00
2023-03-22T12:34:05.853Z,8456.00
2023-03-22T12:39:05.748Z,8296.00
2023-03-22T12:44:05.689Z,7692.00
2023-03-22T12:49:05.657Z,7148.00
2023-03-22T12:54:05.565Z,7036.00
2023-03-22T12:59:05.506Z,6884.00
2023-03-22T13:04:05.586Z,7776.00
2023-03-22T13:09:05.344Z,7944.00
2023-03-22T13:14:05.283Z,8888.00
2023-03-22T13:19:05.204Z,8648.00
2023-03-22T13:24:05.180Z,8348.00
2023-03-22T13:29:05.075Z,7776.00
2023-03-22T13:34:05.012Z,7136.00
2023-03-22T13:39:04.947Z,7120.00
2023-03-22T13:44:06.934Z,7336.00
2023-03-22T13:49:04.925Z,7444.00
2023-03-22T13:54:04.743Z,7244.00
2023-03-22T13:59:04.668Z,7032.00
2023-03-22T14:04:04.612Z,7444.00
2023-03-22T14:09:04.543Z,7204.00
2023-03-22T14:14:04.481Z,6776.00
2023-03-22T14:19:04.412Z,5952.00
